Washington, DC (20505)

2:39 AM EDT on September 17, 2014 (GMT -0400)
Logan Circle | Change Station
CLOSE
Current Station
Personal Weather Station
Location: Washington, DC
Elevation: 108 ft
Nearby Weather Stations

Elev 108 ft 38.91 °N, 77.03 °W | Updated 3 seconds ago

Clear
Clear
58.3 °F
Feels Like 58.3 °F
N
1.6
Wind Variable Wind from NNW
Gusts 2.9 mph

Today
High -- | Low -- °F
--% Chance of Precip.
Yesterday
High -- | Low -- °F
Precip. -- in
6:51 AM 7:13 PM
Last Quarter, 38% visible
Pressure 30.05 in
Visibility 10.0 miles
Clouds Few 25000 ft
Dew Point 50 °F
Humidity 73%
Rainfall 0.00 in
Snow Depth Not available.
UV 0 out of 12
Pollen 5.80 out of 12
Air Quality Not available.
Flu Activity Not available.
METAR KDCA 170552Z 33004KT 10SM FEW250 17/11 A3005 RMK AO2 SLP176 T01720111 10222 20167 51004 $

More Conditions Fewer Conditions

Pressure 30.05 in
Visibility 10.0 miles
Clouds Few 25000 ft
Dew Point 50 °F
Humidity 73%
Rainfall 0.00 in
Snow Depth Not available.
UV 0 out of 12
Pollen 5.80 out of 12
Air Quality Not available.
Flu Activity Not available.
METAR KDCA 170552Z 33004KT 10SM FEW250 17/11 A3005 RMK AO2 SLP176 T01720111 10222 20167 51004 $

More Conditions Fewer Conditions

10-Day Weather Forecast

Almanac

Astronomy

Sep. 17, 2014 Rise Set
Actual Time 6:51 AM EDT 7:13 PM EDT
Civil Twilight 6:24 AM EDT 7:39 PM EDT
Nautical Twilight 5:53 AM EDT 8:11 PM EDT
Astronomical Twilight 5:21 AM EDT 8:43 PM EDT
Moon 12:51 AM EDT 3:19 PM EDT
Length of Visible Light 13h 15m
Length of Day
12h 21m
Tomorrow will be 2m 30s shorter.
Last Quarter, 38% of the Moon is Illuminated
Today
Last Quarter
Sep 24
New
Oct 1
First Quarter
Oct 8
Full
Oct 15
Last Quarter

Today's Extremes

State Highs State Lows

Community

WunderPhotos

Upload Photos

1,753,970 photos uploaded!

Nearby

Snow Depth

Station Depth Elevation
No new snow has been reported.

Earthquake Activity

City Distance Mag. Time & Date
No recent earthquake activity has been reported nearby.
Minimum magnitude displayed is 2.5.

Coastal Water Temperatures

Place Temperature
Washington, DC 75.0 °F
Baltimore, MD 77.0 °F
Solomons Island, MD 75.9 °F

Nearby Weather Stations